sensor_id;sensor_type;location;lat;lon;timestamp;pressure;altitude;pressure_sealevel;temperature;humidity
63819;BME280;49970;54.976;73.248;2023-02-05T00:02:09;101761.00;;;-13.12;80.85
63819;BME280;49970;54.976;73.248;2023-02-05T00:04:36;101755.44;;;-13.21;81.44
63819;BME280;49970;54.976;73.248;2023-02-05T00:07:03;101757.09;;;-13.21;80.89
63819;BME280;49970;54.976;73.248;2023-02-05T00:09:30;101768.44;;;-13.16;81.92
63819;BME280;49970;54.976;73.248;2023-02-05T00:11:57;101775.03;;;-13.20;80.58
63819;BME280;49970;54.976;73.248;2023-02-05T00:14:25;101768.16;;;-13.22;80.91
63819;BME280;49970;54.976;73.248;2023-02-05T00:16:51;101777.50;;;-13.21;80.78
63819;BME280;49970;54.976;73.248;2023-02-05T00:19:23;101769.81;;;-13.23;80.90
63819;BME280;49970;54.976;73.248;2023-02-05T00:21:49;101769.06;;;-13.20;81.83
63819;BME280;49970;54.976;73.248;2023-02-05T00:24:15;101769.19;;;-13.17;80.88
63819;BME280;49970;54.976;73.248;2023-02-05T00:26:41;101757.06;;;-13.23;82.13
63819;BME280;49970;54.976;73.248;2023-02-05T00:29:18;101764.03;;;-13.19;82.05
63819;BME280;49970;54.976;73.248;2023-02-05T00:31:44;101764.03;;;-13.19;80.54
63819;BME280;49970;54.976;73.248;2023-02-05T00:34:15;101762.41;;;-13.17;80.72
63819;BME280;49970;54.976;73.248;2023-02-05T00:36:41;101761.34;;;-13.22;81.70
63819;BME280;49970;54.976;73.248;2023-02-05T00:39:07;101757.19;;;-13.20;81.03
63819;BME280;49970;54.976;73.248;2023-02-05T00:41:37;101748.59;;;-13.22;81.92
63819;BME280;49970;54.976;73.248;2023-02-05T00:44:05;101750.25;;;-13.24;81.58
63819;BME280;49970;54.976;73.248;2023-02-05T00:46:31;101756.13;;;-13.25;80.94
63819;BME280;49970;54.976;73.248;2023-02-05T00:48:57;101749.38;;;-13.24;81.92
63819;BME280;49970;54.976;73.248;2023-02-05T00:51:29;101746.59;;;-13.29;82.46
63819;BME280;49970;54.976;73.248;2023-02-05T00:53:55;101755.13;;;-13.28;81.19
63819;BME280;49970;54.976;73.248;2023-02-05T00:56:31;101755.13;;;-13.28;82.52
63819;BME280;49970;54.976;73.248;2023-02-05T00:58:58;101762.66;;;-13.30;82.18
63819;BME280;49970;54.976;73.248;2023-02-05T01:01:34;101768.41;;;-13.34;81.17
63819;BME280;49970;54.976;73.248;2023-02-05T01:04:09;101761.66;;;-13.34;81.27
63819;BME280;49970;54.976;73.248;2023-02-05T01:06:46;101761.00;;;-13.29;81.27
63819;BME280;49970;54.976;73.248;2023-02-05T01:09:12;101764.56;;;-13.26;82.39
63819;BME280;49970;54.976;73.248;2023-02-05T01:11:48;101762.13;;;-13.24;82.04
63819;BME280;49970;54.976;73.248;2023-02-05T01:14:24;101760.13;;;-13.30;82.43
63819;BME280;49970;54.976;73.248;2023-02-05T01:16:55;101761.81;;;-13.31;82.71
63819;BME280;49970;54.976;73.248;2023-02-05T01:19:21;101769.28;;;-13.34;81.27
63819;BME280;49970;54.976;73.248;2023-02-05T01:21:58;101766.03;;;-13.31;82.80
63819;BME280;49970;54.976;73.248;2023-02-05T01:24:29;101769.66;;;-13.26;82.41
63819;BME280;49970;54.976;73.248;2023-02-05T01:27:05;101762.03;;;-13.26;81.88
63819;BME280;49970;54.976;73.248;2023-02-05T01:29:41;101773.28;;;-13.21;82.61
63819;BME280;49970;54.976;73.248;2023-02-05T01:32:08;101770.88;;;-13.18;82.63
63819;BME280;49970;54.976;73.248;2023-02-05T01:34:34;101767.41;;;-13.20;81.49
63819;BME280;49970;54.976;73.248;2023-02-05T01:37:11;101758.75;;;-13.23;82.00
63819;BME280;49970;54.976;73.248;2023-02-05T01:39:37;101775.81;;;-13.21;82.18
63819;BME280;49970;54.976;73.248;2023-02-05T01:42:22;101753.44;;;-13.28;81.67
63819;BME280;49970;54.976;73.248;2023-02-05T01:47:50;101755.19;;;-13.27;82.67
63819;BME280;49970;54.976;73.248;2023-02-05T01:50:25;101762.03;;;-13.26;82.23
63819;BME280;49970;54.976;73.248;2023-02-05T01:53:06;101769.81;;;-13.23;82.25
63819;BME280;49970;54.976;73.248;2023-02-05T01:55:37;101770.47;;;-13.27;82.55
63819;BME280;49970;54.976;73.248;2023-02-05T01:58:05;101769.59;;;-13.27;82.17
63819;BME280;49970;54.976;73.248;2023-02-05T02:00:31;101773.03;;;-13.27;82.50
63819;BME280;49970;54.976;73.248;2023-02-05T02:02:58;101771.53;;;-13.22;81.72
63819;BME280;49970;54.976;73.248;2023-02-05T02:05:24;101774.06;;;-13.23;82.38
63819;BME280;49970;54.976;73.248;2023-02-05T02:07:51;101777.59;;;-13.20;82.00
63819;BME280;49970;54.976;73.248;2023-02-05T02:10:18;101773.38;;;-13.19;82.00
63819;BME280;49970;54.976;73.248;2023-02-05T02:12:54;101773.53;;;-13.16;82.01
63819;BME280;49970;54.976;73.248;2023-02-05T02:15:22;101779.50;;;-13.16;81.90
63819;BME280;49970;54.976;73.248;2023-02-05T02:18:02;101781.88;;;-13.19;82.47
63819;BME280;49970;54.976;73.248;2023-02-05T02:20:57;101784.28;;;-13.22;82.52
63819;BME280;49970;54.976;73.248;2023-02-05T02:24:08;101795.44;;;-13.20;81.49
63819;BME280;49970;54.976;73.248;2023-02-05T02:26:59;101788.66;;;-13.19;83.15
63819;BME280;49970;54.976;73.248;2023-02-05T02:29:56;101785.47;;;-13.15;81.97
63819;BME280;49970;54.976;73.248;2023-02-05T02:32:40;101789.69;;;-13.16;81.67
63819;BME280;49970;54.976;73.248;2023-02-05T02:35:20;101781.16;;;-13.16;82.85
63819;BME280;49970;54.976;73.248;2023-02-05T02:38:07;101777.00;;;-13.14;81.78
63819;BME280;49970;54.976;73.248;2023-02-05T02:40:47;101783.13;;;-13.11;83.05
63819;BME280;49970;54.976;73.248;2023-02-05T02:46:07;101782.41;;;-13.08;81.96
63819;BME280;49970;54.976;73.248;2023-02-05T02:48:37;101778.91;;;-13.10;83.18
63819;BME280;49970;54.976;73.248;2023-02-05T02:51:15;101778.03;;;-13.11;82.05
63819;BME280;49970;54.976;73.248;2023-02-05T02:53:56;101772.34;;;-13.05;82.83
63819;BME280;49970;54.976;73.248;2023-02-05T02:56:26;101775.03;;;-13.02;83.14
63819;BME280;49970;54.976;73.248;2023-02-05T02:59:02;101770.66;;;-13.05;81.91
63819;BME280;49970;54.976;73.248;2023-02-05T03:01:34;101775.97;;;-13.00;83.20
63819;BME280;49970;54.976;73.248;2023-02-05T03:04:10;101770.47;;;-12.91;83.09
63819;BME280;49970;54.976;73.248;2023-02-05T03:06:49;101769.66;;;-12.90;83.10
63819;BME280;49970;54.976;73.248;2023-02-05T03:09:38;101770.09;;;-12.81;82.63
63819;BME280;49970;54.976;73.248;2023-02-05T03:12:06;101773.72;;;-12.76;83.12
63819;BME280;49970;54.976;73.248;2023-02-05T03:14:33;101772.91;;;-12.75;83.22
63819;BME280;49970;54.976;73.248;2023-02-05T03:17:01;101779.03;;;-12.71;82.35
63819;BME280;49970;54.976;73.248;2023-02-05T03:19:32;101781.53;;;-12.73;82.43
63819;BME280;49970;54.976;73.248;2023-02-05T03:22:02;101785.09;;;-12.69;82.19
63819;BME280;49970;54.976;73.248;2023-02-05T03:24:33;101781.66;;;-12.70;82.25
63819;BME280;49970;54.976;73.248;2023-02-05T03:27:01;101787.63;;;-12.69;83.63
63819;BME280;49970;54.976;73.248;2023-02-05T03:29:32;101787.78;;;-12.66;83.33
63819;BME280;49970;54.976;73.248;2023-02-05T03:35:11;101784.22;;;-12.70;82.56
63819;BME280;49970;54.976;73.248;2023-02-05T03:38:00;101780.84;;;-12.69;83.49
63819;BME280;49970;54.976;73.248;2023-02-05T03:40:45;101789.75;;;-12.61;83.56
63819;BME280;49970;54.976;73.248;2023-02-05T03:55:25;101803.50;;;-12.39;82.62
63819;BME280;49970;54.976;73.248;2023-02-05T03:58:00;101795.16;;;-12.35;82.51
63819;BME280;49970;54.976;73.248;2023-02-05T04:00:29;101794.22;;;-12.37;82.96
63819;BME280;49970;54.976;73.248;2023-02-05T04:03:06;101795.88;;;-12.38;83.40
63819;BME280;49970;54.976;73.248;2023-02-05T04:05:33;101790.13;;;-12.34;83.24
63819;BME280;49970;54.976;73.248;2023-02-05T04:08:11;101784.13;;;-12.34;82.85
63819;BME280;49970;54.976;73.248;2023-02-05T04:10:43;101793.09;;;-12.24;83.01
63819;BME280;49970;54.976;73.248;2023-02-05T04:13:20;101793.22;;;-12.21;82.86
63819;BME280;49970;54.976;73.248;2023-02-05T04:15:48;101789.06;;;-12.19;82.52
63819;BME280;49970;54.976;73.248;2023-02-05T04:18:16;101785.66;;;-12.20;82.33
63819;BME280;49970;54.976;73.248;2023-02-05T04:20:44;101797.59;;;-12.19;82.89
63819;BME280;49970;54.976;73.248;2023-02-05T04:23:12;101790.97;;;-12.15;83.29
63819;BME280;49970;54.976;73.248;2023-02-05T04:25:52;101799.34;;;-12.18;82.71
63819;BME280;49970;54.976;73.248;2023-02-05T04:28:30;101795.19;;;-12.16;83.08
63819;BME280;49970;54.976;73.248;2023-02-05T04:31:08;101797.94;;;-12.11;82.37
63819;BME280;49970;54.976;73.248;2023-02-05T04:33:36;101797.19;;;-12.09;83.16
63819;BME280;49970;54.976;73.248;2023-02-05T04:36:13;101803.41;;;-12.03;83.13
63819;BME280;49970;54.976;73.248;2023-02-05T04:38:49;101798.56;;;-11.97;82.87
63819;BME280;49970;54.976;73.248;2023-02-05T04:41:15;101794.31;;;-11.97;83.29
63819;BME280;49970;54.976;73.248;2023-02-05T04:43:41;101791.91;;;-11.94;82.93
63819;BME280;49970;54.976;73.248;2023-02-05T04:46:09;101791.09;;;-11.93;82.51
63819;BME280;49970;54.976;73.248;2023-02-05T04:48:40;101792.91;;;-11.90;82.78
63819;BME280;49970;54.976;73.248;2023-02-05T04:51:07;101792.09;;;-11.89;82.57
63819;BME280;49970;54.976;73.248;2023-02-05T04:53:34;101781.06;;;-11.88;83.10
63819;BME280;49970;54.976;73.248;2023-02-05T04:56:08;101784.28;;;-11.92;82.65
63819;BME280;49970;54.976;73.248;2023-02-05T04:58:35;101794.66;;;-11.89;82.66
63819;BME280;49970;54.976;73.248;2023-02-05T05:01:01;101787.84;;;-11.89;83.00
63819;BME280;49970;54.976;73.248;2023-02-05T05:03:27;101794.91;;;-11.83;83.38
63819;BME280;49970;54.976;73.248;2023-02-05T05:06:04;101776.09;;;-11.85;83.17
63819;BME280;49970;54.976;73.248;2023-02-05T05:08:31;101787.69;;;-11.72;83.29
63819;BME280;49970;54.976;73.248;2023-02-05T05:11:13;101792.13;;;-11.68;83.24
63819;BME280;49970;54.976;73.248;2023-02-05T05:13:41;101787.88;;;-11.68;83.33
63819;BME280;49970;54.976;73.248;2023-02-05T05:16:17;101782.75;;;-11.68;83.02
63819;BME280;49970;54.976;73.248;2023-02-05T05:18:43;101777.69;;;-11.66;82.77
63819;BME280;49970;54.976;73.248;2023-02-05T05:21:15;101797.63;;;-11.59;82.99
63819;BME280;49970;54.976;73.248;2023-02-05T05:23:51;101791.78;;;-11.57;82.96
63819;BME280;49970;54.976;73.248;2023-02-05T05:26:17;101787.56;;;-11.55;82.95
63819;BME280;49970;54.976;73.248;2023-02-05T05:28:43;101786.03;;;-11.51;82.86
63819;BME280;49970;54.976;73.248;2023-02-05T05:31:15;101779.31;;;-11.49;82.80
63819;BME280;49970;54.976;73.248;2023-02-05T05:33:52;101777.72;;;-11.45;82.87
63819;BME280;49970;54.976;73.248;2023-02-05T05:36:18;101787.28;;;-11.41;83.03
63819;BME280;49970;54.976;73.248;2023-02-05T05:38:50;101785.00;;;-11.35;82.88
63819;BME280;49970;54.976;73.248;2023-02-05T05:41:26;101779.06;;;-11.34;82.84
63819;BME280;49970;54.976;73.248;2023-02-05T05:44:11;101781.69;;;-11.33;83.02
63819;BME280;49970;54.976;73.248;2023-02-05T05:46:41;101774.94;;;-11.31;82.80
63819;BME280;49970;54.976;73.248;2023-02-05T05:49:08;101774.06;;;-11.31;82.95
63819;BME280;49970;54.976;73.248;2023-02-05T05:51:34;101773.41;;;-11.27;82.89
63819;BME280;49970;54.976;73.248;2023-02-05T05:54:00;101771.06;;;-11.21;82.83
63819;BME280;49970;54.976;73.248;2023-02-05T05:56:32;101776.44;;;-11.15;83.16
63819;BME280;49970;54.976;73.248;2023-02-05T05:58:58;101777.63;;;-11.07;83.57
63819;BME280;49970;54.976;73.248;2023-02-05T06:01:24;101776.06;;;-11.03;82.97
63819;BME280;49970;54.976;73.248;2023-02-05T06:03:57;101783.25;;;-10.94;83.06
63819;BME280;49970;54.976;73.248;2023-02-05T06:06:24;101777.53;;;-10.87;82.86
63819;BME280;49970;54.976;73.248;2023-02-05T06:08:50;101776.84;;;-10.83;82.43
63819;BME280;49970;54.976;73.248;2023-02-05T06:11:16;101774.59;;;-10.75;82.48
63819;BME280;49970;54.976;73.248;2023-02-05T06:13:42;101764.59;;;-10.69;82.29
63819;BME280;49970;54.976;73.248;2023-02-05T06:16:14;101770.88;;;-10.61;83.34
63819;BME280;49970;54.976;73.248;2023-02-05T06:18:40;101771.09;;;-10.55;82.35
63819;BME280;49970;54.976;73.248;2023-02-05T06:21:06;101730.53;;;-10.67;82.78
63819;BME280;49970;54.976;73.248;2023-02-05T06:23:33;101759.34;;;-10.50;82.93
63819;BME280;49970;54.976;73.248;2023-02-05T06:25:59;101755.75;;;-10.55;82.10
63819;BME280;49970;54.976;73.248;2023-02-05T06:28:25;101754.28;;;-10.48;83.01
63819;BME280;49970;54.976;73.248;2023-02-05T06:30:51;101754.38;;;-10.45;82.73
63819;BME280;49970;54.976;73.248;2023-02-05T06:33:18;101745.53;;;-10.54;82.01
63819;BME280;49970;54.976;73.248;2023-02-05T06:35:45;101742.88;;;-10.57;82.46
63819;BME280;49970;54.976;73.248;2023-02-05T06:38:11;101748.22;;;-10.50;82.94
63819;BME280;49970;54.976;73.248;2023-02-05T06:40:37;101740.78;;;-10.44;82.47
63819;BME280;49970;54.976;73.248;2023-02-05T06:43:09;101746.94;;;-10.39;82.42
63819;BME280;49970;54.976;73.248;2023-02-05T06:45:35;101738.56;;;-10.35;82.28
63819;BME280;49970;54.976;73.248;2023-02-05T06:48:01;101736.03;;;-10.34;82.48
63819;BME280;49970;54.976;73.248;2023-02-05T06:50:28;101730.06;;;-10.34;82.44
63819;BME280;49970;54.976;73.248;2023-02-05T06:52:54;101730.00;;;-10.36;81.81
63819;BME280;49970;54.976;73.248;2023-02-05T06:55:20;101730.00;;;-10.36;81.94
63819;BME280;49970;54.976;73.248;2023-02-05T06:57:51;101725.97;;;-10.29;82.26
63819;BME280;49970;54.976;73.248;2023-02-05T07:00:18;101718.44;;;-10.24;81.26
63819;BME280;49970;54.976;73.248;2023-02-05T07:02:44;101723.94;;;-10.14;81.97
63819;BME280;49970;54.976;73.248;2023-02-05T07:05:15;101724.13;;;-10.08;81.35
63819;BME280;49970;54.976;73.248;2023-02-05T07:07:49;101718.13;;;-10.08;81.89
63819;BME280;49970;54.976;73.248;2023-02-05T07:10:16;101715.97;;;-9.97;82.22
63819;BME280;49970;54.976;73.248;2023-02-05T07:12:43;101712.72;;;-9.92;81.60
63819;BME280;49970;54.976;73.248;2023-02-05T07:15:11;101693.75;;;-9.97;80.91
63819;BME280;49970;54.976;73.248;2023-02-05T07:17:37;101712.81;;;-9.90;80.88
63819;BME280;49970;54.976;73.248;2023-02-05T07:20:04;101707.72;;;-9.89;81.45
63819;BME280;49970;54.976;73.248;2023-02-05T07:22:35;101706.03;;;-9.88;81.77
63819;BME280;49970;54.976;73.248;2023-02-05T07:25:10;101710.59;;;-9.80;81.70
63819;BME280;49970;54.976;73.248;2023-02-05T07:27:37;101699.00;;;-9.68;81.92
63819;BME280;49970;54.976;73.248;2023-02-05T07:30:04;101698.34;;;-9.63;81.54
63819;BME280;49970;54.976;73.248;2023-02-05T07:32:41;101705.16;;;-9.63;80.48
63819;BME280;49970;54.976;73.248;2023-02-05T07:35:07;101701.84;;;-9.61;81.00
63819;BME280;49970;54.976;73.248;2023-02-05T07:37:58;101713.94;;;-9.57;80.94
63819;BME280;49970;54.976;73.248;2023-02-05T07:42:14;101695.91;;;-9.58;81.07
63819;BME280;49970;54.976;73.248;2023-02-05T07:45:45;101701.84;;;-9.61;80.73
63819;BME280;49970;54.976;73.248;2023-02-05T07:48:22;101699.88;;;-9.68;79.94
63819;BME280;49970;54.976;73.248;2023-02-05T07:50:48;101700.75;;;-9.67;80.18
63819;BME280;49970;54.976;73.248;2023-02-05T07:53:24;101701.91;;;-9.58;81.02
63819;BME280;49970;54.976;73.248;2023-02-05T07:55:55;101685.88;;;-9.52;80.93
63819;BME280;49970;54.976;73.248;2023-02-05T07:58:22;101686.94;;;-9.45;80.23
63819;BME280;49970;54.976;73.248;2023-02-05T08:00:48;101691.28;;;-9.43;79.90
63819;BME280;49970;54.976;73.248;2023-02-05T08:03:24;101686.28;;;-9.40;80.81
63819;BME280;49970;54.976;73.248;2023-02-05T08:05:51;101681.16;;;-9.40;80.12
63819;BME280;49970;54.976;73.248;2023-02-05T08:08:17;101676.59;;;-9.48;80.49
63819;BME280;49970;54.976;73.248;2023-02-05T08:10:43;101679.22;;;-9.45;80.33
63819;BME280;49970;54.976;73.248;2023-02-05T08:13:09;101675.94;;;-9.41;80.63
63819;BME280;49970;54.976;73.248;2023-02-05T08:15:38;101679.38;;;-9.41;79.40
63819;BME280;49970;54.976;73.248;2023-02-05T08:18:14;101676.78;;;-9.42;80.20
63819;BME280;49970;54.976;73.248;2023-02-05T08:20:40;101684.44;;;-9.44;79.51
63819;BME280;49970;54.976;73.248;2023-02-05T08:23:07;101672.59;;;-9.40;80.56
63819;BME280;49970;54.976;73.248;2023-02-05T08:25:43;101674.31;;;-9.39;80.05
63819;BME280;49970;54.976;73.248;2023-02-05T08:28:14;101674.22;;;-9.42;79.86
63819;BME280;49970;54.976;73.248;2023-02-05T08:30:45;101671.47;;;-9.48;80.23
63819;BME280;49970;54.976;73.248;2023-02-05T08:33:11;101676.47;;;-9.51;80.13
63819;BME280;49970;54.976;73.248;2023-02-05T08:35:47;101667.84;;;-9.54;78.99
63819;BME280;49970;54.976;73.248;2023-02-05T08:38:13;101655.81;;;-9.56;78.70
63819;BME280;49970;54.976;73.248;2023-02-05T08:40:44;101656.72;;;-9.54;79.60
63819;BME280;49970;54.976;73.248;2023-02-05T08:43:11;101662.78;;;-9.52;80.15
63819;BME280;49970;54.976;73.248;2023-02-05T08:45:45;101648.84;;;-9.60;78.82
63819;BME280;49970;54.976;73.248;2023-02-05T08:48:19;101661.81;;;-9.56;79.84
63819;BME280;49970;54.976;73.248;2023-02-05T08:50:50;101652.06;;;-9.66;79.69
63819;BME280;49970;54.976;73.248;2023-02-05T08:53:16;101651.66;;;-9.78;79.58
63819;BME280;49970;54.976;73.248;2023-02-05T08:55:42;101658.56;;;-9.77;78.96
63819;BME280;49970;54.976;73.248;2023-02-05T08:58:20;101657.00;;;-9.72;79.38
63819;BME280;49970;54.976;73.248;2023-02-05T09:00:47;101648.63;;;-9.66;79.14
63819;BME280;49970;54.976;73.248;2023-02-05T09:03:13;101655.56;;;-9.64;78.71
63819;BME280;49970;54.976;73.248;2023-02-05T09:05:39;101653.88;;;-9.63;78.63
63819;BME280;49970;54.976;73.248;2023-02-05T09:08:05;101647.00;;;-9.64;78.80
63819;BME280;49970;54.976;73.248;2023-02-05T09:10:32;101659.75;;;-9.66;79.66
63819;BME280;49970;54.976;73.248;2023-02-05T09:12:58;101657.00;;;-9.72;79.29
63819;BME280;49970;54.976;73.248;2023-02-05T09:15:24;101643.97;;;-9.78;79.63
63819;BME280;49970;54.976;73.248;2023-02-05T09:17:50;101652.59;;;-9.76;79.61
63819;BME280;49970;54.976;73.248;2023-02-05T09:20:17;101652.75;;;-9.71;79.56
63819;BME280;49970;54.976;73.248;2023-02-05T09:22:49;101652.00;;;-9.69;79.75
63819;BME280;49970;54.976;73.248;2023-02-05T09:25:18;101649.34;;;-9.70;79.42
63819;BME280;49970;54.976;73.248;2023-02-05T09:27:45;101647.38;;;-9.79;78.67
63819;BME280;49970;54.976;73.248;2023-02-05T09:30:21;101649.84;;;-9.82;79.04
63819;BME280;49970;54.976;73.248;2023-02-05T09:32:58;101660.88;;;-9.85;78.53
63819;BME280;49970;54.976;73.248;2023-02-05T09:35:24;101649.44;;;-9.94;78.38
63819;BME280;49970;54.976;73.248;2023-02-05T09:37:55;101663.16;;;-9.92;78.17
63819;BME280;49970;54.976;73.248;2023-02-05T09:40:30;101664.09;;;-9.90;79.41
63819;BME280;49970;54.976;73.248;2023-02-05T09:48:55;101656.59;;;-9.84;79.07
63819;BME280;49970;54.976;73.248;2023-02-05T09:51:35;101658.44;;;-9.80;78.65
63819;BME280;49970;54.976;73.248;2023-02-05T09:56:50;101655.94;;;-9.79;78.95
63819;BME280;49970;54.976;73.248;2023-02-05T09:59:28;101660.09;;;-9.82;78.44
63819;BME280;49970;54.976;73.248;2023-02-05T10:01:57;101649.94;;;-9.79;78.54
63819;BME280;49970;54.976;73.248;2023-02-05T10:04:33;101659.22;;;-9.83;78.88
63819;BME280;49970;54.976;73.248;2023-02-05T10:10:02;101655.03;;;-9.81;79.54
63819;BME280;49970;54.976;73.248;2023-02-05T10:24:32;101656.50;;;-9.87;78.84
63819;BME280;49970;54.976;73.248;2023-02-05T10:32:56;101661.06;;;-9.79;79.70
63819;BME280;49970;54.976;73.248;2023-02-05T10:37:56;101668.81;;;-9.77;79.66
63819;BME280;49970;54.976;73.248;2023-02-05T10:40:29;101659.53;;;-9.73;78.84
63819;BME280;49970;54.976;73.248;2023-02-05T10:45:51;101669.56;;;-9.80;79.11
63819;BME280;49970;54.976;73.248;2023-02-05T10:48:44;101666.91;;;-9.83;79.07
63819;BME280;49970;54.976;73.248;2023-02-05T10:51:26;101650.19;;;-9.97;78.95
63819;BME280;49970;54.976;73.248;2023-02-05T10:54:16;101663.22;;;-9.91;79.25
63819;BME280;49970;54.976;73.248;2023-02-05T10:56:49;101661.47;;;-9.92;79.16
63819;BME280;49970;54.976;73.248;2023-02-05T10:59:25;101656.06;;;-9.99;78.71
63819;BME280;49970;54.976;73.248;2023-02-05T11:02:03;101654.03;;;-10.10;78.96
63819;BME280;49970;54.976;73.248;2023-02-05T11:04:38;101654.22;;;-10.04;79.08
63819;BME280;49970;54.976;73.248;2023-02-05T11:07:15;101662.63;;;-10.08;79.25
63819;BME280;49970;54.976;73.248;2023-02-05T11:09:44;101651.47;;;-10.10;79.20
63819;BME280;49970;54.976;73.248;2023-02-05T11:12:25;101659.16;;;-10.10;79.33
63819;BME280;49970;54.976;73.248;2023-02-05T11:14:58;101646.38;;;-10.08;79.95
63819;BME280;49970;54.976;73.248;2023-02-05T11:17:36;101648.94;;;-10.08;78.94
63819;BME280;49970;54.976;73.248;2023-02-05T11:20:06;101648.94;;;-10.08;79.74
63819;BME280;49970;54.976;73.248;2023-02-05T11:22:40;101647.09;;;-10.12;79.07
63819;BME280;49970;54.976;73.248;2023-02-05T11:25:17;101645.25;;;-10.16;80.10
63819;BME280;49970;54.976;73.248;2023-02-05T11:30:29;101657.16;;;-10.18;79.88
63819;BME280;49970;54.976;73.248;2023-02-05T11:32:58;101647.66;;;-10.21;80.06
63819;BME280;49970;54.976;73.248;2023-02-05T11:35:29;101651.09;;;-10.20;79.11
63819;BME280;49970;54.976;73.248;2023-02-05T11:40:29;101656.72;;;-10.32;79.92
63819;BME280;49970;54.976;73.248;2023-02-05T11:43:00;101657.44;;;-10.36;80.17
63819;BME280;49970;54.976;73.248;2023-02-05T11:45:28;101658.28;;;-10.36;79.74
63819;BME280;49970;54.976;73.248;2023-02-05T11:47:57;101664.13;;;-10.40;80.22
63819;BME280;49970;54.976;73.248;2023-02-05T11:50:35;101657.06;;;-10.45;79.66
63819;BME280;49970;54.976;73.248;2023-02-05T11:53:10;101656.22;;;-10.46;80.01
63819;BME280;49970;54.976;73.248;2023-02-05T11:55:39;101655.41;;;-10.45;79.59
63819;BME280;49970;54.976;73.248;2023-02-05T11:58:38;101657.97;;;-10.45;79.15
63819;BME280;49970;54.976;73.248;2023-02-05T12:01:21;101637.97;;;-10.55;80.09
63819;BME280;49970;54.976;73.248;2023-02-05T12:04:18;101649.22;;;-10.50;80.31
63819;BME280;49970;54.976;73.248;2023-02-05T12:06:59;101650.88;;;-10.52;80.03
63819;BME280;49970;54.976;73.248;2023-02-05T12:09:27;101645.53;;;-10.58;79.57
63819;BME280;49970;54.976;73.248;2023-02-05T12:12:21;101649.63;;;-10.63;80.31
63819;BME280;49970;54.976;73.248;2023-02-05T12:21:18;101650.69;;;-10.81;79.37
63819;BME280;49970;54.976;73.248;2023-02-05T12:26:44;101636.44;;;-10.96;79.58
63819;BME280;49970;54.976;73.248;2023-02-05T12:29:40;101634.59;;;-11.00;79.52
63819;BME280;49970;54.976;73.248;2023-02-05T12:44:41;101636.22;;;-11.25;79.92
63819;BME280;49970;54.976;73.248;2023-02-05T12:51:00;101639.41;;;-11.31;80.33
63819;BME280;49970;54.976;73.248;2023-02-05T12:58:37;101638.53;;;-11.31;80.25
63819;BME280;49970;54.976;73.248;2023-02-05T13:01:23;101639.41;;;-11.31;79.89
63819;BME280;49970;54.976;73.248;2023-02-05T13:04:00;101633.38;;;-11.33;80.98
63819;BME280;49970;54.976;73.248;2023-02-05T13:06:40;101644.41;;;-11.34;80.53
63819;BME280;49970;54.976;73.248;2023-02-05T13:09:29;101649.66;;;-11.31;80.37
63819;BME280;49970;54.976;73.248;2023-02-05T13:12:01;101646.22;;;-11.31;80.54
63819;BME280;49970;54.976;73.248;2023-02-05T13:17:16;101640.97;;;-11.34;81.03
63819;BME280;49970;54.976;73.248;2023-02-05T13:19:59;101626.09;;;-11.44;80.37
63819;BME280;49970;54.976;73.248;2023-02-05T13:22:42;101633.94;;;-11.40;80.60
63819;BME280;49970;54.976;73.248;2023-02-05T13:25:39;101631.25;;;-11.43;80.76
63819;BME280;49970;54.976;73.248;2023-02-05T13:28:33;101632.81;;;-11.46;80.57
63819;BME280;49970;54.976;73.248;2023-02-05T13:31:27;101625.84;;;-11.50;80.22
63819;BME280;49970;54.976;73.248;2023-02-05T13:34:01;101612.84;;;-11.57;79.84
63819;BME280;49970;54.976;73.248;2023-02-05T13:45:30;101632.78;;;-11.69;80.99
63819;BME280;49970;54.976;73.248;2023-02-05T13:48:26;101624.00;;;-11.75;80.60
63819;BME280;49970;54.976;73.248;2023-02-05T13:54:20;101612.84;;;-11.77;80.36
63819;BME280;49970;54.976;73.248;2023-02-05T13:59:40;101607.56;;;-11.82;80.67
63819;BME280;49970;54.976;73.248;2023-02-05T14:04:59;101612.84;;;-11.77;80.86
63819;BME280;49970;54.976;73.248;2023-02-05T14:07:34;101597.25;;;-11.85;80.56
63819;BME280;49970;54.976;73.248;2023-02-05T14:10:26;101606.06;;;-11.77;80.58
63819;BME280;49970;54.976;73.248;2023-02-05T14:13:10;101610.34;;;-11.76;80.91
63819;BME280;49970;54.976;73.248;2023-02-05T14:15:40;101610.47;;;-11.73;81.03
63819;BME280;49970;54.976;73.248;2023-02-05T14:18:12;101619.94;;;-11.70;81.08
63819;BME280;49970;54.976;73.248;2023-02-05T14:24:27;101620.19;;;-11.64;81.15
63819;BME280;49970;54.976;73.248;2023-02-05T14:33:00;101618.50;;;-11.64;80.74
63819;BME280;49970;54.976;73.248;2023-02-05T14:35:37;101605.88;;;-11.61;80.90
63819;BME280;49970;54.976;73.248;2023-02-05T14:38:30;101615.22;;;-11.61;80.68
63819;BME280;49970;54.976;73.248;2023-02-05T14:41:11;101596.16;;;-11.69;80.93
63819;BME280;49970;54.976;73.248;2023-02-05T14:43:39;101604.75;;;-11.67;80.66
63819;BME280;49970;54.976;73.248;2023-02-05T14:46:27;101582.38;;;-11.73;80.63
63819;BME280;49970;54.976;73.248;2023-02-05T14:48:56;101581.69;;;-11.69;80.82
63819;BME280;49970;54.976;73.248;2023-02-05T14:51:33;101582.28;;;-11.74;80.85
63819;BME280;49970;54.976;73.248;2023-02-05T14:54:18;101585.06;;;-11.70;81.14
63819;BME280;49970;54.976;73.248;2023-02-05T14:56:50;101583.97;;;-11.75;80.38
63819;BME280;49970;54.976;73.248;2023-02-05T14:59:40;101588.22;;;-11.75;81.41
63819;BME280;49970;54.976;73.248;2023-02-05T15:05:40;101578.81;;;-11.76;81.93
63819;BME280;49970;54.976;73.248;2023-02-05T15:08:14;101574.44;;;-11.79;81.63
63819;BME280;49970;54.976;73.248;2023-02-05T15:10:53;101571.91;;;-11.79;81.69